createdAt,value
2022-10-10T00:02:22.544Z,8.05
2022-10-10T00:04:54.488Z,8.65
2022-10-10T00:07:26.208Z,8.25
2022-10-10T00:09:57.857Z,8.50
2022-10-10T00:12:29.681Z,9.57
2022-10-10T00:15:01.403Z,9.38
2022-10-10T00:17:33.104Z,8.05
2022-10-10T00:20:08.120Z,8.98
2022-10-10T00:22:39.963Z,9.57
2022-10-10T00:25:11.929Z,9.60
2022-10-10T00:27:43.655Z,10.02
2022-10-10T00:30:18.535Z,8.77
2022-10-10T00:32:50.330Z,8.52
2022-10-10T00:35:22.119Z,8.18
2022-10-10T00:37:56.918Z,8.57
2022-10-10T00:40:29.332Z,8.23
2022-10-10T00:43:01.195Z,7.93
2022-10-10T00:45:35.408Z,8.23
2022-10-10T00:48:12.490Z,8.25
2022-10-10T00:51:03.686Z,7.70
2022-10-10T00:53:47.995Z,8.20
2022-10-10T00:56:22.614Z,8.43
2022-10-10T00:58:58.152Z,8.15
2022-10-10T01:01:29.878Z,7.32
2022-10-10T01:04:03.884Z,7.32
2022-10-10T01:06:35.649Z,7.85
2022-10-10T01:09:07.352Z,7.80
2022-10-10T01:11:49.830Z,7.70
2022-10-10T01:15:02.639Z,8.07
2022-10-10T01:18:04.597Z,8.23
2022-10-10T01:20:54.723Z,7.68
2022-10-10T01:24:00.349Z,8.02
2022-10-10T01:26:40.944Z,7.50
2022-10-10T01:29:40.832Z,7.95
2022-10-10T01:32:34.112Z,7.22
2022-10-10T01:35:43.371Z,8.07
2022-10-10T01:38:27.909Z,7.57
2022-10-10T01:41:19.811Z,7.60
2022-10-10T01:43:55.874Z,7.65
2022-10-10T01:46:27.639Z,7.13
2022-10-10T01:49:01.262Z,8.20
2022-10-10T01:51:51.635Z,8.75
2022-10-10T01:54:35.813Z,8.85
2022-10-10T01:57:31.691Z,7.20
2022-10-10T02:00:13.366Z,8.00
2022-10-10T02:02:52.811Z,6.80
2022-10-10T02:05:36.563Z,7.05
2022-10-10T02:08:36.212Z,7.47
2022-10-10T02:11:13.258Z,6.95
2022-10-10T02:13:53.226Z,7.55
2022-10-10T02:16:30.807Z,7.72
2022-10-10T02:19:06.050Z,8.10
2022-10-10T02:21:40.513Z,7.72
2022-10-10T02:24:13.792Z,7.50
2022-10-10T02:26:54.495Z,7.47
2022-10-10T02:29:31.808Z,7.47
2022-10-10T02:32:17.363Z,8.38
2022-10-10T02:34:55.587Z,8.50
2022-10-10T02:37:27.964Z,8.00
2022-10-10T02:40:02.842Z,8.48
2022-10-10T02:42:37.040Z,7.60
2022-10-10T02:45:12.002Z,8.05
2022-10-10T02:47:45.956Z,7.57
2022-10-10T02:50:17.930Z,7.18
2022-10-10T02:52:49.744Z,7.05
2022-10-10T02:55:21.662Z,7.03
2022-10-10T02:57:53.530Z,6.10
2022-10-10T03:00:25.216Z,6.32
2022-10-10T03:02:56.909Z,6.50
2022-10-10T03:05:28.587Z,6.55
2022-10-10T03:08:03.809Z,5.72
2022-10-10T03:10:40.385Z,5.38
2022-10-10T03:13:12.147Z,5.60
2022-10-10T03:15:43.800Z,5.65
2022-10-10T03:18:15.424Z,5.13
2022-10-10T03:20:54.030Z,5.97
2022-10-10T03:23:25.869Z,5.90
2022-10-10T03:25:57.576Z,5.90
2022-10-10T03:28:29.405Z,5.05
2022-10-10T03:31:01.127Z,7.03
2022-10-10T03:33:34.592Z,5.15
2022-10-10T03:36:06.613Z,5.45
2022-10-10T03:38:39.953Z,5.47
2022-10-10T03:41:11.883Z,5.78
2022-10-10T03:43:43.532Z,6.05
2022-10-10T03:46:16.371Z,5.68
2022-10-10T03:48:48.528Z,6.43
2022-10-10T03:51:23.374Z,6.13
2022-10-10T03:53:55.157Z,5.88
2022-10-10T03:56:26.787Z,5.15
2022-10-10T03:59:00.745Z,5.32
2022-10-10T04:01:33.282Z,5.60
2022-10-10T04:04:05.219Z,5.45
2022-10-10T04:06:36.935Z,6.35
2022-10-10T04:09:08.581Z,5.70
2022-10-10T04:11:41.038Z,6.53
2022-10-10T04:14:12.766Z,6.30
2022-10-10T04:16:44.396Z,6.00
2022-10-10T04:19:16.076Z,5.63
2022-10-10T04:21:47.682Z,6.18
2022-10-10T04:24:20.425Z,5.95
2022-10-10T04:26:52.165Z,5.78
2022-10-10T04:29:24.049Z,5.78
2022-10-10T04:31:55.704Z,5.85
2022-10-10T04:34:28.386Z,5.55
2022-10-10T04:37:00.097Z,6.53
2022-10-10T04:39:31.800Z,6.35
2022-10-10T04:42:03.668Z,5.72
2022-10-10T04:44:35.307Z,6.28
2022-10-10T04:47:10.071Z,6.03
2022-10-10T04:49:42.201Z,6.40
2022-10-10T04:52:13.960Z,5.88
2022-10-10T04:54:45.609Z,6.38
2022-10-10T04:57:17.332Z,6.05
2022-10-10T04:59:50.003Z,5.50
2022-10-10T05:02:21.706Z,5.50
2022-10-10T05:04:53.299Z,5.97
2022-10-10T05:07:24.978Z,6.20
2022-10-10T05:09:56.628Z,6.22
2022-10-10T05:12:28.465Z,5.72
2022-10-10T05:15:03.222Z,5.68
2022-10-10T05:17:35.142Z,6.68
2022-10-10T05:20:07.084Z,5.55
2022-10-10T05:22:38.899Z,4.97
2022-10-10T05:25:11.156Z,5.53
2022-10-10T05:27:45.041Z,6.15
2022-10-10T05:30:16.828Z,5.45
2022-10-10T05:32:48.705Z,5.72
2022-10-10T05:35:20.687Z,5.90
2022-10-10T05:37:52.356Z,5.35
2022-10-10T05:40:24.147Z,6.00
2022-10-10T05:42:55.853Z,5.47
2022-10-10T05:45:30.446Z,5.47
2022-10-10T05:48:02.308Z,5.68
2022-10-10T05:50:38.730Z,5.50
2022-10-10T05:53:10.479Z,5.65
2022-10-10T05:55:45.375Z,5.53
2022-10-10T05:58:20.438Z,5.70
2022-10-10T06:00:52.397Z,5.47
2022-10-10T06:03:24.367Z,5.55
2022-10-10T06:05:55.994Z,5.57
2022-10-10T06:08:34.151Z,5.15
2022-10-10T06:11:11.183Z,4.90
2022-10-10T06:13:43.857Z,4.85
2022-10-10T06:16:15.642Z,5.00
2022-10-10T06:18:47.506Z,4.82
2022-10-10T06:21:19.789Z,4.85
2022-10-10T06:23:51.836Z,4.47
2022-10-10T06:26:23.702Z,4.65
2022-10-10T06:28:55.700Z,4.10
2022-10-10T06:31:27.368Z,4.60
2022-10-10T06:33:59.149Z,4.57
2022-10-10T06:36:31.313Z,4.93
2022-10-10T06:39:03.046Z,4.20
2022-10-10T06:41:34.925Z,4.40
2022-10-10T06:44:17.905Z,4.22
2022-10-10T06:46:49.570Z,4.55
2022-10-10T06:49:33.771Z,3.85
2022-10-10T06:52:08.747Z,4.40
2022-10-10T06:54:43.379Z,4.13
2022-10-10T06:57:15.150Z,4.95
2022-10-10T06:59:46.858Z,4.13
2022-10-10T07:02:19.885Z,4.28
2022-10-10T07:04:51.917Z,4.18
2022-10-10T07:07:25.812Z,3.97
2022-10-10T07:09:57.652Z,4.18
2022-10-10T07:12:31.859Z,4.10
2022-10-10T07:15:06.866Z,4.45
2022-10-10T07:17:38.544Z,4.82
2022-10-10T07:20:10.346Z,4.40
2022-10-10T07:22:42.310Z,3.80
2022-10-10T07:25:14.096Z,3.80
2022-10-10T07:27:45.938Z,4.90
2022-10-10T07:30:17.774Z,3.90
2022-10-10T07:32:49.969Z,4.10
2022-10-10T07:35:22.647Z,4.20
2022-10-10T07:37:56.087Z,4.10
2022-10-10T07:40:27.996Z,4.30
2022-10-10T07:42:59.732Z,4.53
2022-10-10T07:45:31.579Z,5.03
2022-10-10T07:48:03.807Z,4.00
2022-10-10T07:50:35.755Z,4.97
2022-10-10T07:53:08.097Z,4.50
2022-10-10T07:55:43.800Z,4.07
2022-10-10T07:58:15.627Z,4.60
2022-10-10T08:00:47.368Z,4.40
2022-10-10T08:03:21.041Z,4.15
2022-10-10T08:05:52.972Z,4.30
2022-10-10T08:08:24.896Z,4.43
2022-10-10T08:10:57.933Z,4.35
2022-10-10T08:13:29.617Z,4.50
2022-10-10T08:16:01.801Z,4.43
2022-10-10T08:18:33.599Z,4.40
2022-10-10T08:21:10.807Z,4.95
2022-10-10T08:23:42.674Z,4.20
2022-10-10T08:26:16.121Z,4.45
2022-10-10T08:28:48.706Z,4.88
2022-10-10T08:31:22.848Z,4.82
2022-10-10T08:33:56.317Z,4.75
2022-10-10T08:36:28.326Z,4.13
2022-10-10T08:39:01.595Z,4.40
2022-10-10T08:41:40.644Z,4.25
2022-10-10T08:44:21.962Z,5.53
2022-10-10T08:47:01.858Z,4.60
2022-10-10T08:49:45.699Z,4.50
2022-10-10T08:52:29.632Z,4.68
2022-10-10T08:55:05.106Z,4.55
2022-10-10T08:57:48.316Z,4.20
2022-10-10T09:00:22.863Z,4.22
2022-10-10T09:02:58.307Z,4.28
2022-10-10T09:06:08.472Z,4.18
2022-10-10T09:08:56.191Z,4.07
2022-10-10T09:12:01.669Z,4.63
2022-10-10T09:14:44.938Z,3.90
2022-10-10T09:17:25.948Z,5.53
2022-10-10T09:20:03.825Z,3.55
2022-10-10T09:22:46.694Z,4.10
2022-10-10T09:25:23.623Z,3.70
2022-10-10T09:28:12.721Z,4.22
2022-10-10T09:30:51.224Z,4.10
2022-10-10T09:33:25.665Z,4.63
2022-10-10T09:35:59.334Z,4.13
2022-10-10T09:38:59.460Z,4.63
2022-10-10T09:41:46.419Z,4.20
2022-10-10T09:44:21.659Z,4.13
2022-10-10T09:46:53.717Z,4.30
2022-10-10T09:49:25.784Z,4.18
2022-10-10T09:51:58.173Z,3.50
2022-10-10T09:54:30.225Z,4.28
2022-10-10T09:57:05.220Z,4.13
2022-10-10T09:59:46.424Z,3.72
2022-10-10T10:02:20.802Z,4.15
2022-10-10T10:04:53.782Z,3.42
2022-10-10T10:07:32.001Z,4.30
2022-10-10T10:10:18.751Z,4.32
2022-10-10T10:12:55.005Z,4.50
2022-10-10T10:15:30.617Z,4.18
2022-10-10T10:18:13.242Z,3.70
2022-10-10T10:20:48.023Z,4.30
2022-10-10T10:23:53.604Z,3.88
2022-10-10T10:26:28.037Z,3.95
2022-10-10T10:29:01.054Z,4.50
2022-10-10T10:32:11.866Z,3.33
2022-10-10T10:34:49.447Z,3.90
2022-10-10T10:37:43.673Z,4.07
2022-10-10T10:40:36.631Z,3.75
2022-10-10T10:43:51.901Z,3.83
2022-10-10T10:46:38.553Z,3.40
2022-10-10T10:49:42.575Z,3.40
2022-10-10T10:52:21.530Z,4.40
2022-10-10T10:55:02.197Z,3.97
2022-10-10T10:58:10.301Z,3.53
2022-10-10T11:01:23.961Z,3.95
2022-10-10T11:05:16.323Z,3.38
2022-10-10T11:06:59.963Z,3.63
2022-10-10T11:09:50.193Z,3.15
2022-10-10T11:12:41.931Z,3.42
2022-10-10T11:15:13.764Z,3.47
2022-10-10T11:17:54.359Z,3.33
2022-10-10T11:20:53.588Z,3.33
2022-10-10T11:23:36.477Z,4.13
2022-10-10T11:26:23.136Z,3.50
2022-10-10T11:29:15.019Z,3.08
2022-10-10T11:31:59.868Z,3.78
2022-10-10T11:34:55.434Z,3.40
2022-10-10T11:37:43.209Z,3.35
2022-10-10T11:40:30.707Z,3.63
2022-10-10T11:43:12.488Z,3.30
2022-10-10T11:45:51.094Z,3.30
2022-10-10T11:48:53.407Z,3.28
2022-10-10T11:51:37.565Z,3.67
2022-10-10T11:54:25.804Z,3.50
2022-10-10T11:57:03.359Z,3.53
2022-10-10T11:59:41.889Z,3.25
2022-10-10T12:02:36.424Z,3.92
2022-10-10T12:05:32.530Z,2.83
2022-10-10T12:08:49.326Z,3.33
2022-10-10T12:11:47.794Z,3.20
2022-10-10T12:14:22.384Z,3.50
2022-10-10T12:16:54.348Z,2.92
2022-10-10T12:19:28.677Z,3.30
2022-10-10T12:22:06.137Z,3.50
2022-10-10T12:25:20.620Z,3.55
2022-10-10T12:28:22.438Z,3.47
2022-10-10T12:30:58.452Z,3.40
2022-10-10T12:33:33.553Z,3.20
2022-10-10T12:36:37.617Z,3.50
2022-10-10T12:39:10.863Z,3.50
2022-10-10T12:41:57.142Z,3.50
2022-10-10T12:44:34.559Z,3.40
2022-10-10T12:47:15.240Z,3.28
2022-10-10T12:49:57.579Z,3.88
2022-10-10T12:52:49.639Z,3.30
2022-10-10T12:55:32.478Z,3.15
2022-10-10T12:58:12.149Z,3.60
2022-10-10T13:00:49.924Z,3.20
2022-10-10T13:03:28.296Z,3.00
2022-10-10T13:06:15.355Z,3.10
2022-10-10T13:08:48.046Z,3.25
2022-10-10T13:11:19.785Z,3.40
2022-10-10T13:14:01.317Z,2.97
2022-10-10T13:16:43.956Z,2.60
2022-10-10T13:19:24.498Z,3.50
2022-10-10T13:21:56.433Z,3.20
2022-10-10T13:24:31.657Z,3.55
2022-10-10T13:27:03.525Z,3.40
2022-10-10T13:29:41.845Z,2.58
2022-10-10T13:32:28.011Z,3.17
2022-10-10T13:35:04.252Z,3.05
2022-10-10T13:37:36.488Z,3.00
2022-10-10T13:40:19.511Z,3.20
2022-10-10T13:42:52.342Z,2.80
2022-10-10T13:45:30.770Z,2.85
2022-10-10T13:48:02.587Z,3.00
2022-10-10T13:50:43.464Z,2.80
2022-10-10T13:53:30.441Z,2.95
2022-10-10T13:56:13.694Z,2.97
2022-10-10T13:59:00.749Z,2.88
2022-10-10T14:01:44.466Z,3.10
2022-10-10T14:04:22.079Z,3.60
2022-10-10T14:07:01.289Z,2.92
2022-10-10T14:09:48.000Z,2.80
2022-10-10T14:12:28.211Z,2.83
2022-10-10T14:15:00.946Z,3.22
2022-10-10T14:17:32.625Z,9.55
2022-10-10T14:20:09.697Z,6.45
2022-10-10T14:22:41.600Z,10.15
2022-10-10T14:25:14.229Z,4.00
2022-10-10T14:27:46.083Z,2.72
2022-10-10T14:30:17.847Z,2.70
2022-10-10T14:32:49.533Z,3.72
2022-10-10T14:35:21.310Z,3.28
2022-10-10T14:37:55.909Z,2.70
2022-10-10T14:40:30.560Z,2.90
2022-10-10T14:43:02.453Z,2.90
2022-10-10T14:45:34.328Z,2.95
2022-10-10T14:48:06.720Z,3.55
2022-10-10T14:50:44.192Z,2.90
2022-10-10T14:53:16.488Z,3.03
2022-10-10T14:55:51.328Z,3.20
2022-10-10T14:58:25.645Z,3.40
2022-10-10T15:00:57.790Z,3.40
2022-10-10T15:03:29.655Z,3.35
2022-10-10T15:06:01.406Z,2.83
2022-10-10T15:08:33.493Z,3.00
2022-10-10T15:11:05.691Z,3.30
2022-10-10T15:13:39.339Z,3.55
2022-10-10T15:16:11.296Z,3.33
2022-10-10T15:18:58.586Z,3.40
2022-10-10T15:21:32.904Z,3.75
2022-10-10T15:24:04.983Z,3.83
2022-10-10T15:26:36.718Z,3.30
2022-10-10T15:29:08.434Z,3.35
2022-10-10T15:31:40.236Z,3.35
2022-10-10T15:34:12.050Z,3.50
2022-10-10T15:36:43.727Z,3.38
2022-10-10T15:39:15.871Z,3.85
2022-10-10T15:41:47.491Z,3.42
2022-10-10T15:44:19.355Z,4.07
2022-10-10T15:46:51.045Z,3.90
2022-10-10T15:49:22.881Z,3.78
2022-10-10T15:51:54.619Z,3.75
2022-10-10T15:54:26.419Z,3.97
2022-10-10T15:56:58.149Z,4.38
2022-10-10T15:59:30.265Z,4.20
2022-10-10T16:02:02.053Z,3.60
2022-10-10T16:04:33.757Z,3.40
2022-10-10T16:07:25.548Z,3.90
2022-10-10T16:09:59.099Z,4.15
2022-10-10T16:12:30.778Z,3.83
2022-10-10T16:15:06.929Z,3.90
2022-10-10T16:17:38.946Z,3.60
2022-10-10T16:20:11.032Z,3.40
2022-10-10T16:22:42.764Z,3.97
2022-10-10T16:25:22.386Z,4.20
2022-10-10T16:27:54.806Z,30.55
2022-10-10T16:30:26.635Z,20.50
2022-10-10T16:33:01.902Z,13.20
2022-10-10T16:35:37.813Z,8.20
2022-10-10T16:38:09.695Z,5.88
2022-10-10T16:40:41.516Z,4.45
2022-10-10T16:43:13.312Z,5.07
2022-10-10T16:45:46.000Z,4.30
2022-10-10T16:48:17.687Z,4.25
2022-10-10T16:50:50.006Z,3.50
2022-10-10T16:53:21.772Z,4.32
2022-10-10T16:55:53.413Z,3.67
2022-10-10T16:58:25.456Z,3.53
2022-10-10T17:00:59.419Z,4.28
2022-10-10T17:03:34.329Z,4.18
2022-10-10T17:06:17.615Z,4.53
2022-10-10T17:08:51.903Z,4.70
2022-10-10T17:11:24.356Z,4.20
2022-10-10T17:13:56.270Z,5.38
2022-10-10T17:19:23.636Z,6.32
2022-10-10T17:21:55.405Z,5.93
2022-10-10T17:24:27.197Z,5.20
2022-10-10T17:26:58.879Z,6.18
2022-10-10T17:29:30.579Z,5.25
2022-10-10T17:32:06.186Z,5.85
2022-10-10T17:34:38.341Z,5.38
2022-10-10T17:37:10.324Z,6.40
2022-10-10T17:39:42.144Z,6.40
2022-10-10T17:42:14.077Z,5.82
2022-10-10T17:44:51.513Z,5.47
2022-10-10T17:47:27.593Z,5.38
2022-10-10T17:49:59.335Z,6.22
2022-10-10T17:52:34.448Z,6.55
2022-10-10T17:55:06.620Z,8.00
2022-10-10T17:57:38.407Z,6.25
2022-10-10T18:00:10.740Z,6.95
2022-10-10T18:02:44.543Z,6.40
2022-10-10T18:05:18.329Z,6.70
2022-10-10T18:07:50.423Z,8.25
2022-10-10T18:10:22.190Z,6.72
2022-10-10T18:12:54.007Z,6.88
2022-10-10T18:15:25.701Z,6.00
2022-10-10T18:17:57.792Z,6.45
2022-10-10T18:20:29.659Z,7.00
2022-10-10T18:23:01.612Z,6.72
2022-10-10T18:25:33.784Z,6.80
2022-10-10T18:28:08.069Z,6.55
2022-10-10T18:30:40.291Z,6.90
2022-10-10T18:33:12.014Z,7.22
2022-10-10T18:35:43.821Z,7.57
2022-10-10T18:38:21.241Z,7.45
2022-10-10T18:41:07.894Z,7.38
2022-10-10T18:43:40.836Z,7.20
2022-10-10T18:46:15.652Z,7.45
2022-10-10T18:48:51.486Z,6.97
2022-10-10T18:51:29.438Z,7.20
2022-10-10T18:54:04.451Z,7.30
2022-10-10T18:56:38.128Z,7.85
2022-10-10T18:59:22.267Z,7.20
2022-10-10T19:01:54.127Z,6.90
2022-10-10T19:04:26.163Z,7.43
2022-10-10T19:06:58.046Z,7.95
2022-10-10T19:09:31.015Z,8.13
2022-10-10T19:12:02.828Z,7.88
2022-10-10T19:14:34.653Z,7.93
2022-10-10T19:17:09.103Z,7.68
2022-10-10T19:19:40.918Z,8.25
2022-10-10T19:22:13.113Z,8.45
2022-10-10T19:24:44.963Z,8.63
2022-10-10T19:27:16.596Z,8.77
2022-10-10T19:29:50.697Z,9.65
2022-10-10T19:32:22.417Z,8.70
2022-10-10T19:34:54.202Z,8.90
2022-10-10T19:37:26.527Z,8.68
2022-10-10T19:39:58.592Z,9.55
2022-10-10T19:42:30.478Z,9.57
2022-10-10T19:45:02.625Z,9.80
2022-10-10T19:47:34.477Z,10.65
2022-10-10T19:50:06.678Z,10.50
2022-10-10T19:52:38.403Z,10.38
2022-10-10T19:55:10.847Z,10.50
2022-10-10T19:57:42.556Z,10.50
2022-10-10T20:00:14.802Z,10.45
2022-10-10T20:02:46.945Z,10.40
2022-10-10T20:05:18.741Z,10.65
2022-10-10T20:07:50.882Z,10.93
2022-10-10T20:10:23.506Z,9.93
2022-10-10T20:12:55.467Z,10.57
2022-10-10T20:15:27.208Z,10.50
2022-10-10T20:17:59.063Z,10.63
2022-10-10T20:20:30.792Z,9.90
2022-10-10T20:23:02.807Z,11.07
2022-10-10T20:25:42.531Z,11.05
2022-10-10T20:28:16.115Z,11.30
2022-10-10T20:30:50.567Z,10.70
2022-10-10T20:33:22.390Z,10.40
2022-10-10T20:35:56.226Z,10.60
2022-10-10T20:38:28.097Z,10.68
2022-10-10T20:41:02.995Z,10.80
2022-10-10T20:43:36.092Z,11.02
2022-10-10T20:46:10.406Z,11.52
2022-10-10T20:48:42.168Z,9.77
2022-10-10T20:51:14.064Z,10.27
2022-10-10T20:53:45.828Z,10.52
2022-10-10T20:56:17.545Z,10.07
2022-10-10T20:58:49.209Z,11.30
2022-10-10T21:01:24.864Z,10.65
2022-10-10T21:03:57.164Z,10.38
2022-10-10T21:06:34.536Z,10.63
2022-10-10T21:09:08.764Z,11.13
2022-10-10T21:11:41.632Z,10.73
2022-10-10T21:14:13.559Z,14.27
2022-10-10T21:16:45.550Z,11.38
2022-10-10T21:19:18.025Z,10.85
2022-10-10T21:21:49.761Z,10.23
2022-10-10T21:24:21.415Z,10.38
2022-10-10T21:26:53.146Z,10.68
2022-10-10T21:29:24.852Z,10.57
2022-10-10T21:31:56.596Z,10.73
2022-10-10T21:34:28.242Z,9.85
2022-10-10T21:37:00.025Z,9.93
2022-10-10T21:39:32.058Z,10.10
2022-10-10T21:42:04.141Z,10.32
2022-10-10T21:44:35.825Z,10.38
2022-10-10T21:47:07.562Z,10.05
2022-10-10T21:49:42.776Z,10.80
2022-10-10T21:52:14.746Z,10.88
2022-10-10T21:54:46.437Z,10.27
2022-10-10T21:57:18.526Z,9.98
2022-10-10T21:59:50.273Z,10.85
2022-10-10T22:02:22.106Z,11.23
2022-10-10T22:04:54.713Z,10.38
2022-10-10T22:07:26.372Z,10.98
2022-10-10T22:10:00.876Z,10.55
2022-10-10T22:12:32.680Z,10.48
2022-10-10T22:15:04.579Z,11.05
2022-10-10T22:17:37.127Z,10.60
2022-10-10T22:20:10.291Z,10.60
2022-10-10T22:22:43.379Z,11.27
2022-10-10T22:25:17.495Z,10.75
2022-10-10T22:27:49.227Z,11.00
2022-10-10T22:30:21.239Z,10.82
2022-10-10T22:32:53.069Z,10.73
2022-10-10T22:35:27.747Z,10.38
2022-10-10T22:38:00.102Z,10.23
2022-10-10T22:40:32.042Z,10.20
2022-10-10T22:43:03.847Z,10.50
2022-10-10T22:45:35.577Z,11.43
2022-10-10T22:48:07.280Z,10.98
2022-10-10T22:50:41.725Z,10.63
2022-10-10T22:53:13.476Z,10.68
2022-10-10T22:55:45.141Z,11.57
2022-10-10T22:58:16.772Z,10.45
2022-10-10T23:00:48.515Z,12.02
2022-10-10T23:03:20.657Z,11.27
2022-10-10T23:05:52.377Z,11.15
2022-10-10T23:08:24.482Z,10.60
2022-10-10T23:10:56.856Z,11.68
2022-10-10T23:13:29.265Z,10.38
2022-10-10T23:16:01.374Z,10.88
2022-10-10T23:18:33.381Z,11.75
2022-10-10T23:21:05.114Z,10.93
2022-10-10T23:23:37.300Z,11.00
2022-10-10T23:26:09.281Z,11.50
2022-10-10T23:28:45.901Z,10.57
2022-10-10T23:33:49.481Z,10.70
2022-10-10T23:36:21.158Z,10.68
2022-10-10T23:38:52.983Z,10.88
2022-10-10T23:41:25.069Z,10.65
2022-10-10T23:43:56.791Z,10.57
2022-10-10T23:46:28.434Z,11.10
2022-10-10T23:49:00.251Z,11.48
2022-10-10T23:51:32.198Z,11.45
2022-10-10T23:54:04.000Z,11.40
2022-10-10T23:56:35.752Z,11.85
2022-10-10T23:59:07.533Z,11.40
